Time;durP1;ratioP1;P1;durP2;ratioP2;P2;SDS_P1;SDS_P2;PMS_P1;PMS_P2;Temp;Humidity;BMP_temperature;BMP_pressure;BME280_temperature;BME280_humidity;BME280_pressure;Samples;Min_cycle;Max_cycle;Signal;HPM_P1;HPM_P2
2023/07/22 00:01:49;;;;;;;7.97;3.87;;;;;;;14.52;100.00;101886.56;4926349;28;20298;-71
2023/07/22 00:04:14;;;;;;;6.70;4.10;;;;;;;14.57;100.00;101929.19;4940376;28;20190;-72
2023/07/22 00:06:39;;;;;;;5.03;3.90;;;;;;;14.49;100.00;101868.03;4942846;28;20590;-71
2023/07/22 00:09:05;;;;;;;6.90;4.40;;;;;;;14.46;100.00;101845.00;4943396;28;20289;-71
2023/07/22 00:11:32;;;;;;;7.87;3.80;;;;;;;14.51;100.00;101855.19;4945125;28;20206;-71
2023/07/22 00:13:58;;;;;;;8.90;4.53;;;;;;;14.07;100.00;101836.69;4945280;28;21189;-72
2023/07/22 00:16:24;;;;;;;5.50;3.57;;;;;;;14.67;100.00;101905.38;4926750;29;20553;-71
2023/07/22 00:18:49;;;;;;;5.63;3.57;;;;;;;13.63;100.00;101791.97;4943221;28;20596;-71
2023/07/22 00:21:15;;;;;;;5.60;3.50;;;;;;;14.14;100.00;101870.75;4945972;28;20273;-72
2023/07/22 00:23:40;;;;;;;6.37;3.60;;;;;;;14.12;100.00;101888.19;4945414;28;21070;-71
2023/07/22 00:26:05;;;;;;;5.40;3.83;;;;;;;14.25;100.00;101886.38;4945875;28;20687;-72
2023/07/22 00:28:31;;;;;;;5.50;3.67;;;;;;;14.32;100.00;101899.09;4947461;28;20562;-72
2023/07/22 00:30:57;;;;;;;7.90;4.07;;;;;;;14.25;100.00;101891.78;4945592;28;20175;-72
2023/07/22 00:33:23;;;;;;;5.93;4.00;;;;;;;14.24;100.00;101930.59;4945631;28;20190;-71
2023/07/22 00:35:52;;;;;;;4.23;3.37;;;;;;;14.11;100.00;101935.06;4943778;28;20198;-71
2023/07/22 00:38:18;;;;;;;6.03;3.70;;;;;;;14.17;100.00;101900.03;4946326;29;20952;-71
2023/07/22 00:40:44;;;;;;;5.97;3.40;;;;;;;14.41;100.00;101890.66;4947335;29;20525;-70
2023/07/22 00:43:09;;;;;;;5.63;3.60;;;;;;;14.58;100.00;101852.53;4942785;29;20447;-72
2023/07/22 00:45:35;;;;;;;3.50;2.80;;;;;;;14.04;100.00;101793.91;4936442;28;20219;-72
2023/07/22 00:48:01;;;;;;;7.60;3.30;;;;;;;14.55;100.00;101837.59;4938850;28;20187;-71
2023/07/22 00:50:26;;;;;;;7.07;3.10;;;;;;;14.04;100.00;101813.63;4947266;28;20194;-72
2023/07/22 00:52:52;;;;;;;4.93;2.90;;;;;;;14.44;100.00;101870.53;4945366;28;20179;-72
2023/07/22 00:55:18;;;;;;;7.23;3.53;;;;;;;14.48;100.00;101842.91;4946875;28;20427;-71
2023/07/22 00:57:44;;;;;;;3.80;2.40;;;;;;;14.52;100.00;101821.78;4946015;28;20863;-71
2023/07/22 01:00:13;;;;;;;4.93;2.70;;;;;;;14.39;100.00;101800.13;4947306;28;20262;-73
2023/07/22 01:02:40;;;;;;;5.27;2.70;;;;;;;14.36;100.00;101805.91;4946179;28;20211;-72
2023/07/22 01:05:06;;;;;;;3.13;2.10;;;;;;;14.36;100.00;101795.94;4947686;28;20434;-71
2023/07/22 01:07:31;;;;;;;4.10;2.40;;;;;;;13.78;100.00;101719.91;4946694;28;20442;-71
2023/07/22 01:09:58;;;;;;;4.60;2.30;;;;;;;14.02;100.00;101807.59;4945501;28;20231;-72
2023/07/22 01:12:24;;;;;;;3.90;2.30;;;;;;;14.00;100.00;101794.31;4948176;28;20319;-71
2023/07/22 01:14:50;;;;;;;4.43;2.30;;;;;;;14.38;100.00;101809.25;4949077;28;20426;-71
2023/07/22 01:17:15;;;;;;;4.97;2.70;;;;;;;14.41;100.00;101793.47;4948044;28;20457;-72
2023/07/22 01:19:41;;;;;;;4.23;2.50;;;;;;;14.38;100.00;101814.66;4944729;28;20676;-73
2023/07/22 01:22:10;;;;;;;4.73;2.40;;;;;;;14.22;100.00;101807.69;4947391;28;20214;-71
2023/07/22 01:24:37;;;;;;;3.80;2.30;;;;;;;14.32;100.00;101829.78;4947442;28;20187;-73
2023/07/22 01:27:07;;;;;;;3.23;2.00;;;;;;;14.28;100.00;101792.59;4941854;28;20834;-72
2023/07/22 01:29:34;;;;;;;3.13;2.40;;;;;;;13.75;100.00;101725.69;4946284;28;20526;-71
2023/07/22 01:31:59;;;;;;;4.17;2.00;;;;;;;13.64;100.00;101705.50;4947957;28;20427;-72
2023/07/22 01:34:25;;;;;;;3.93;2.03;;;;;;;14.51;100.00;101787.69;4947854;28;20526;-72
2023/07/22 01:36:50;;;;;;;2.57;1.70;;;;;;;14.01;100.00;101733.09;4943391;28;20242;-71
2023/07/22 01:39:17;;;;;;;2.63;1.80;;;;;;;14.24;100.00;101787.59;4947051;28;20191;-71
2023/07/22 01:41:43;;;;;;;3.47;2.00;;;;;;;14.15;100.00;101769.91;4926958;29;20199;-72
2023/07/22 01:44:08;;;;;;;2.10;1.43;;;;;;;13.95;100.00;101734.72;4946837;28;20438;-72
2023/07/22 01:46:35;;;;;;;3.90;2.33;;;;;;;14.30;100.00;101760.84;4945467;28;20979;-73
2023/07/22 01:49:01;;;;;;;7.17;2.50;;;;;;;14.09;100.00;101718.59;4942297;28;20187;-72
2023/07/22 01:51:27;;;;;;;4.37;2.20;;;;;;;14.01;100.00;101751.97;4942955;28;20457;-71
2023/07/22 01:53:53;;;;;;;2.73;1.97;;;;;;;14.28;100.00;101747.53;4938167;28;20446;-72
2023/07/22 01:56:20;;;;;;;4.10;2.17;;;;;;;14.28;100.00;101722.41;4939897;28;20211;-71
2023/07/22 01:58:45;;;;;;;3.80;2.10;;;;;;;14.44;100.00;101744.50;4936822;28;20700;-72
2023/07/22 02:01:15;;;;;;;3.10;2.00;;;;;;;14.46;100.00;101755.94;4919540;28;20549;-71
2023/07/22 02:03:40;;;;;;;4.20;1.97;;;;;;;14.09;100.00;101724.84;4933151;28;20720;-72
2023/07/22 02:06:06;;;;;;;5.07;2.50;;;;;;;14.25;100.00;101773.06;4938306;28;20476;-71
2023/07/22 02:08:32;;;;;;;3.00;1.97;;;;;;;14.21;100.00;101814.97;4930484;28;20681;-72
2023/07/22 02:11:03;;;;;;;3.70;2.00;;;;;;;14.10;100.00;101748.09;4931428;28;20269;-71
2023/07/22 02:13:29;;;;;;;4.13;2.77;;;;;;;14.32;100.00;101785.75;4938582;28;21046;-72
2023/07/22 02:15:55;;;;;;;3.40;2.00;;;;;;;14.39;100.00;101757.75;4932743;28;20470;-71
2023/07/22 02:18:20;;;;;;;4.27;2.13;;;;;;;14.27;100.00;101735.09;4938929;28;20749;-72
2023/07/22 02:20:46;;;;;;;3.87;2.43;;;;;;;14.43;100.00;101747.38;4931989;28;20263;-71
2023/07/22 02:23:11;;;;;;;4.20;2.47;;;;;;;14.06;100.00;101700.97;4937817;28;20676;-71
2023/07/22 02:25:37;;;;;;;2.90;2.33;;;;;;;14.20;100.00;101735.06;4935305;28;20222;-72
2023/07/22 02:28:02;;;;;;;4.77;2.53;;;;;;;13.72;100.00;101705.34;4936342;28;20628;-72
2023/07/22 02:30:28;;;;;;;3.50;2.23;;;;;;;14.29;100.00;101765.41;4936851;29;20585;-72
2023/07/22 02:32:53;;;;;;;4.87;2.40;;;;;;;14.18;100.00;101771.38;4938056;29;20183;-71
2023/07/22 02:35:18;;;;;;;4.33;2.20;;;;;;;13.18;100.00;101664.72;4937502;28;20747;-72
2023/07/22 02:37:44;;;;;;;3.80;1.90;;;;;;;14.09;100.00;101826.50;4919303;29;20191;-72
2023/07/22 02:40:11;;;;;;;5.13;2.10;;;;;;;14.10;100.00;101764.25;4932219;28;20189;-71
2023/07/22 02:42:37;;;;;;;3.50;2.00;;;;;;;14.00;100.00;101712.53;4935318;28;20254;-71
2023/07/22 02:45:04;;;;;;;4.40;1.97;;;;;;;14.17;100.00;101746.22;4918115;28;20474;-71
2023/07/22 02:47:30;;;;;;;3.73;2.40;;;;;;;14.15;100.00;101742.94;4935586;28;20221;-71
2023/07/22 02:49:55;;;;;;;2.93;1.90;;;;;;;14.14;100.00;101746.63;4932630;28;21043;-71
2023/07/22 02:52:20;;;;;;;3.30;2.27;;;;;;;13.97;100.00;101715.63;4938345;28;21132;-72
2023/07/22 02:55:13;;;;;;;3.03;2.03;;;;;;;13.40;100.00;101642.13;4933270;28;20707;-72
2023/07/22 02:57:40;;;;;;;2.83;2.00;;;;;;;14.16;100.00;101762.63;4941896;28;20225;-71
2023/07/22 03:00:07;;;;;;;5.50;2.40;;;;;;;14.15;100.00;101739.41;4937919;28;20549;-71
2023/07/22 03:02:36;;;;;;;9.63;2.90;;;;;;;13.96;100.00;101768.75;4939131;28;20995;-72
2023/07/22 03:05:12;;;;;;;3.93;2.40;;;;;;;13.93;100.00;101792.59;4938342;28;20443;-71
2023/07/22 03:07:38;;;;;;;6.80;2.37;;;;;;;13.93;100.00;101800.69;4940168;28;22680;-71
2023/07/22 03:10:07;;;;;;;5.60;2.00;;;;;;;13.78;100.00;101814.28;4922055;29;20478;-72
2023/07/22 03:12:33;;;;;;;4.10;2.50;;;;;;;13.77;100.00;101829.63;4941305;28;20438;-71
2023/07/22 03:14:59;;;;;;;2.90;2.20;;;;;;;13.81;100.00;101851.63;4936784;28;20447;-71
2023/07/22 03:17:25;;;;;;;3.30;1.93;;;;;;;13.97;100.00;101845.09;4943545;28;21033;-71
2023/07/22 03:19:50;;;;;;;4.00;2.30;;;;;;;13.86;100.00;101810.59;4944379;28;20191;-71
2023/07/22 03:22:16;;;;;;;5.03;2.47;;;;;;;13.60;100.00;101768.09;4942817;28;20760;-71
2023/07/22 03:24:42;;;;;;;3.00;2.33;;;;;;;13.78;100.00;101871.72;4946972;28;20533;-71
2023/07/22 03:27:08;;;;;;;3.27;2.17;;;;;;;14.01;100.00;101884.16;4944365;28;20267;-71
2023/07/22 03:29:34;;;;;;;5.70;2.60;;;;;;;14.08;100.00;101854.53;4944965;28;20442;-71
2023/07/22 03:31:59;;;;;;;5.80;2.20;;;;;;;13.81;100.00;101775.31;4938184;28;20187;-72
2023/07/22 03:34:28;;;;;;;4.77;2.30;;;;;;;13.99;100.00;101816.91;4942657;28;20204;-72
2023/07/22 03:36:54;;;;;;;2.97;2.43;;;;;;;13.87;100.00;101758.31;4942762;28;20553;-71
2023/07/22 03:39:20;;;;;;;4.77;2.40;;;;;;;14.09;100.00;101795.00;4945466;28;20456;-71
2023/07/22 03:41:45;;;;;;;3.30;2.33;;;;;;;13.62;100.00;101806.47;4924763;29;20694;-71
2023/07/22 03:44:11;;;;;;;3.57;2.07;;;;;;;13.98;100.00;101847.63;4944072;28;20447;-72
2023/07/22 03:46:37;;;;;;;3.90;2.70;;;;;;;13.93;100.00;101825.78;4945344;28;20302;-71
2023/07/22 03:49:02;;;;;;;3.93;2.50;;;;;;;13.81;100.00;101823.84;4944273;28;20446;-71
2023/07/22 03:51:28;;;;;;;2.53;2.00;;;;;;;13.50;100.00;101897.81;4939710;28;20206;-72
2023/07/22 03:53:53;;;;;;;2.80;2.27;;;;;;;13.83;100.00;101914.31;4940998;28;20804;-71
2023/07/22 03:56:19;;;;;;;4.63;2.40;;;;;;;12.66;100.00;101688.31;4942149;28;20215;-71
2023/07/22 03:58:44;;;;;;;3.90;1.70;;;;;;;13.86;100.00;101872.63;4944840;28;20202;-71
2023/07/22 04:01:13;;;;;;;4.40;2.67;;;;;;;13.96;100.00;101875.81;4944978;28;20255;-72
2023/07/22 04:03:38;;;;;;;3.43;2.27;;;;;;;13.69;100.00;101789.31;4939854;28;20281;-72
2023/07/22 04:06:04;;;;;;;2.83;2.03;;;;;;;13.18;100.00;101823.66;4943324;28;21275;-72
2023/07/22 04:08:29;;;;;;;3.53;2.03;;;;;;;13.78;100.00;101901.38;4941115;28;20207;-72
2023/07/22 04:10:56;;;;;;;4.10;2.40;;;;;;;13.59;100.00;101853.50;4940967;28;20724;-72
2023/07/22 04:13:23;;;;;;;3.20;1.77;;;;;;;13.75;100.00;101877.50;4925825;28;20254;-71
2023/07/22 04:15:48;;;;;;;2.43;2.03;;;;;;;13.48;100.00;101857.59;4947067;28;20470;-71
2023/07/22 04:18:17;;;;;;;4.07;2.50;;;;;;;13.41;100.00;101925.91;4941601;28;20809;-71
2023/07/22 04:20:44;;;;;;;3.13;2.20;;;;;;;13.36;100.00;101937.25;4940785;28;20222;-71
2023/07/22 04:23:10;;;;;;;3.50;2.23;;;;;;;13.66;100.00;101929.06;4943033;28;20434;-71
2023/07/22 04:25:40;;;;;;;4.50;2.07;;;;;;;14.01;100.00;101895.78;4924696;29;20480;-71
2023/07/22 04:28:05;;;;;;;2.57;1.63;;;;;;;13.86;100.00;101868.06;4947031;28;20523;-71
2023/07/22 04:30:31;;;;;;;3.53;2.00;;;;;;;13.87;100.00;101868.91;4946507;28;20961;-71
2023/07/22 04:32:56;;;;;;;3.90;1.90;;;;;;;13.88;100.00;101884.03;4946918;28;20190;-72
2023/07/22 04:35:22;;;;;;;3.10;1.80;;;;;;;14.13;100.00;101811.59;4950107;28;20195;-71
2023/07/22 04:37:47;;;;;;;3.50;1.70;;;;;;;14.13;100.00;101742.28;4946351;28;20195;-71
2023/07/22 04:40:14;;;;;;;4.03;1.80;;;;;;;13.98;100.00;101772.09;4927793;29;20183;-71
2023/07/22 04:42:41;;;;;;;2.47;1.57;;;;;;;13.81;100.00;101776.13;4944297;28;20215;-72
2023/07/22 04:45:08;;;;;;;3.97;1.70;;;;;;;14.09;100.00;101804.91;4943919;28;20446;-73
2023/07/22 04:47:34;;;;;;;2.90;1.70;;;;;;;13.03;100.00;101671.03;4945397;28;20821;-71
2023/07/22 04:49:59;;;;;;;8.80;1.93;;;;;;;14.29;100.00;101811.28;4943235;28;20439;-71
2023/07/22 04:52:24;;;;;;;3.10;1.83;;;;;;;13.65;100.00;101809.59;4942651;29;20653;-71
2023/07/22 04:54:50;;;;;;;5.20;2.20;;;;;;;13.60;100.00;101814.75;4939150;28;20187;-71
2023/07/22 04:57:16;;;;;;;3.87;2.40;;;;;;;13.93;100.00;101932.84;4940351;28;21165;-71
2023/07/22 04:59:49;;;;;;;2.57;2.13;;;;;;;13.98;100.00;101939.31;4925120;29;21219;-71
2023/07/22 05:02:15;;;;;;;4.63;2.03;;;;;;;14.00;100.00;101949.91;4942877;28;20482;-71
2023/07/22 05:04:40;;;;;;;3.50;2.10;;;;;;;13.62;100.00;101877.38;4940984;28;20454;-71
2023/07/22 05:07:06;;;;;;;4.83;2.40;;;;;;;14.00;100.00;101921.09;4935508;28;20570;-71
2023/07/22 05:09:31;;;;;;;5.23;2.40;;;;;;;14.02;100.00;101916.31;4942202;28;20668;-71
2023/07/22 05:11:56;;;;;;;7.17;2.77;;;;;;;13.87;100.00;101968.69;4938381;28;20613;-71
2023/07/22 05:14:23;;;;;;;3.27;1.87;;;;;;;13.88;100.00;101946.06;4927235;29;20195;-71
2023/07/22 05:16:48;;;;;;;2.90;1.77;;;;;;;14.07;100.00;101942.72;4942750;28;20418;-71
2023/07/22 05:19:13;;;;;;;4.80;1.90;;;;;;;14.18;100.00;101893.63;4941887;28;20935;-70
2023/07/22 05:21:39;;;;;;;2.80;1.87;;;;;;;14.37;100.00;101877.75;4944222;28;20211;-71
2023/07/22 05:24:04;;;;;;;3.23;1.60;;;;;;;14.42;100.00;101857.22;4946295;28;20191;-71
2023/07/22 05:26:31;;;;;;;3.90;1.80;;;;;;;14.24;100.00;101829.94;4945090;28;20747;-71
2023/07/22 05:28:56;;;;;;;4.20;1.53;;;;;;;14.36;100.00;101841.00;4942538;28;20278;-71
2023/07/22 05:31:21;;;;;;;5.37;2.37;;;;;;;13.99;100.00;101818.78;4942295;28;20434;-72
2023/07/22 05:33:47;;;;;;;3.30;1.70;;;;;;;14.32;100.00;101899.09;4939432;28;20191;-71
2023/07/22 05:36:12;;;;;;;2.40;1.67;;;;;;;14.12;100.00;101891.72;4928775;28;20348;-71
2023/07/22 05:38:38;;;;;;;3.73;2.17;;;;;;;14.22;100.00;101913.75;4939883;28;20202;-71
2023/07/22 05:41:03;;;;;;;4.83;2.80;;;;;;;14.20;100.00;101928.47;4931082;28;20298;-72
2023/07/22 05:43:29;;;;;;;6.97;3.30;;;;;;;14.06;100.00;101965.34;4934580;28;20227;-72
2023/07/22 05:45:54;;;;;;;5.93;3.23;;;;;;;14.00;100.00;102001.16;4945352;28;20235;-72
2023/07/22 05:48:21;;;;;;;5.03;3.50;;;;;;;14.10;100.00;102025.97;4927218;29;20599;-72
2023/07/22 05:50:47;;;;;;;4.73;3.60;;;;;;;14.17;100.00;102037.63;4944627;28;20187;-72
2023/07/22 05:53:13;;;;;;;5.73;3.67;;;;;;;14.12;100.00;102013.13;4946463;28;20434;-72
2023/07/22 05:55:38;;;;;;;6.93;4.10;;;;;;;13.85;100.00;101962.63;4938231;28;20470;-72
2023/07/22 05:58:05;;;;;;;4.63;3.60;;;;;;;13.82;100.00;101957.63;4941382;28;20195;-72
2023/07/22 06:00:33;;;;;;;6.17;3.10;;;;;;;14.13;100.00;101963.50;4943878;28;20222;-71
2023/07/22 06:02:59;;;;;;;4.60;2.93;;;;;;;14.17;100.00;101967.47;4948010;28;20475;-73
2023/07/22 06:05:24;;;;;;;6.03;3.13;;;;;;;14.40;100.00;101947.53;4947934;28;20462;-71
2023/07/22 06:07:50;;;;;;;4.13;3.20;;;;;;;14.27;100.00;101891.59;4944900;28;20280;-73
2023/07/22 06:10:15;;;;;;;4.70;2.57;;;;;;;14.23;100.00;101879.50;4948679;29;20638;-74
2023/07/22 06:12:41;;;;;;;5.97;3.60;;;;;;;14.45;100.00;101918.06;4946941;28;20191;-73
2023/07/22 06:15:07;;;;;;;3.70;2.50;;;;;;;14.64;100.00;101867.97;4946648;28;20198;-73
2023/07/22 06:17:37;;;;;;;3.07;2.77;;;;;;;14.18;100.00;101766.81;4945820;28;20217;-73
2023/07/22 06:20:04;;;;;;;4.30;2.50;;;;;;;14.76;100.00;101831.25;4947326;28;20209;-72
2023/07/22 06:22:29;;;;;;;6.10;3.20;;;;;;;14.67;100.00;101816.25;4929704;28;20474;-71
2023/07/22 06:24:55;;;;;;;5.10;2.77;;;;;;;14.71;100.00;101789.69;4928500;29;20494;-72
2023/07/22 06:27:20;;;;;;;5.20;3.33;;;;;;;14.78;100.00;101788.69;4945212;28;20207;-72
2023/07/22 06:29:45;;;;;;;7.07;3.07;;;;;;;14.31;100.00;101703.13;4921971;29;20528;-72
2023/07/22 06:32:11;;;;;;;5.27;3.30;;;;;;;14.94;100.00;101784.75;4939858;28;20230;-73
2023/07/22 06:34:37;;;;;;;7.40;3.60;;;;;;;15.00;100.00;101808.25;4940865;28;20612;-72
2023/07/22 06:37:02;;;;;;;5.00;2.80;;;;;;;14.94;100.00;101787.44;4941707;28;20600;-71
2023/07/22 06:39:28;;;;;;;6.67;2.83;;;;;;;15.04;100.00;101777.09;4945285;28;20291;-72
2023/07/22 06:41:53;;;;;;;5.80;3.17;;;;;;;15.21;100.00;101765.88;4941712;28;20234;-72
2023/07/22 06:44:19;;;;;;;4.93;2.80;;;;;;;14.67;100.00;101698.28;4921131;29;20327;-72
2023/07/22 06:46:44;;;;;;;7.20;3.53;;;;;;;14.77;100.00;101710.53;4941368;28;20249;-72
2023/07/22 06:49:10;;;;;;;5.47;3.30;;;;;;;14.81;100.00;101723.44;4943800;28;20204;-71
2023/07/22 06:51:35;;;;;;;7.10;4.30;;;;;;;15.05;100.00;101748.19;4945776;28;20274;-72
2023/07/22 06:54:02;;;;;;;7.97;4.03;;;;;;;15.08;100.00;101705.38;4939443;28;20199;-72
2023/07/22 06:56:28;;;;;;;5.70;4.20;;;;;;;15.29;100.00;101698.09;4943744;28;20214;-72
2023/07/22 06:58:53;;;;;;;6.07;4.07;;;;;;;15.23;100.00;101697.06;4942758;28;20450;-72
2023/07/22 07:01:19;;;;;;;7.50;3.30;;;;;;;15.13;100.00;101673.16;4938505;28;20217;-72
2023/07/22 07:03:44;;;;;;;6.10;3.90;;;;;;;15.35;100.00;101706.19;4937914;28;20859;-72
2023/07/22 07:06:11;;;;;;;5.87;4.03;;;;;;;15.40;100.00;101678.53;4918472;29;20211;-72
2023/07/22 07:08:37;;;;;;;8.77;5.00;;;;;;;15.19;100.00;101630.13;4941517;28;20198;-72
2023/07/22 07:11:02;;;;;;;6.80;4.37;;;;;;;15.45;100.00;101642.75;4942614;28;20461;-72
2023/07/22 07:13:28;;;;;;;6.53;4.73;;;;;;;15.64;100.00;101654.56;4936792;28;20569;-72
2023/07/22 07:15:54;;;;;;;8.77;4.60;;;;;;;15.74;100.00;101682.06;4946691;28;20278;-71
2023/07/22 07:18:20;;;;;;;8.50;5.53;;;;;;;15.72;100.00;101674.13;4940379;28;20187;-72
2023/07/22 07:20:45;;;;;;;8.23;4.90;;;;;;;15.52;100.00;101614.66;4939421;28;20453;-72
2023/07/22 07:23:12;;;;;;;6.37;4.60;;;;;;;15.52;100.00;101592.22;4922313;29;20187;-73
2023/07/22 07:25:38;;;;;;;8.13;5.20;;;;;;;15.83;100.00;101637.50;4944459;28;20207;-69
2023/07/22 07:28:04;;;;;;;9.37;5.70;;;;;;;15.71;100.00;101629.22;4944911;28;21067;-71
2023/07/22 07:30:30;;;;;;;7.57;5.57;;;;;;;15.66;100.00;101637.09;4946543;28;20183;-70
2023/07/22 07:32:56;;;;;;;8.33;5.83;;;;;;;15.68;100.00;101634.19;4928533;28;20466;-71
2023/07/22 07:35:21;;;;;;;9.70;5.60;;;;;;;15.68;100.00;101621.53;4946619;28;20434;-70
2023/07/22 07:37:47;;;;;;;10.43;5.80;;;;;;;15.88;100.00;101631.41;4925045;28;20209;-71
2023/07/22 07:40:12;;;;;;;9.10;6.00;;;;;;;16.00;100.00;101598.06;4937291;28;20206;-72
2023/07/22 07:42:38;;;;;;;10.67;5.70;;;;;;;15.85;100.00;101583.16;4942226;28;20214;-73
2023/07/22 07:45:04;;;;;;;7.40;5.67;;;;;;;15.64;100.00;101527.47;4945643;28;20705;-72
2023/07/22 07:47:30;;;;;;;6.20;4.80;;;;;;;15.97;100.00;101541.69;4948943;28;20207;-74
2023/07/22 07:49:56;;;;;;;6.10;4.90;;;;;;;16.20;100.00;101533.00;4947514;28;20431;-72
2023/07/22 07:52:21;;;;;;;7.23;5.10;;;;;;;16.25;100.00;101553.97;4945622;28;20457;-74
2023/07/22 07:54:47;;;;;;;9.53;5.90;;;;;;;16.13;100.00;101542.22;4945800;28;20267;-73
2023/07/22 07:57:13;;;;;;;9.93;6.00;;;;;;;16.06;100.00;101552.25;4948563;28;20198;-74
2023/07/22 07:59:38;;;;;;;9.27;7.00;;;;;;;15.98;100.00;101585.81;4946214;28;20438;-73
2023/07/22 08:02:08;;;;;;;13.93;6.27;;;;;;;16.11;100.00;101607.38;4946402;28;20628;-73
2023/07/22 08:04:34;;;;;;;8.77;6.60;;;;;;;15.52;100.00;101521.91;4943112;28;20286;-72
2023/07/22 08:06:59;;;;;;;9.87;6.70;;;;;;;16.28;100.00;101613.09;4947210;28;21207;-72
2023/07/22 08:09:24;;;;;;;10.43;7.10;;;;;;;16.12;100.00;101530.56;4942352;28;20325;-72
2023/07/22 08:11:50;;;;;;;7.77;6.20;;;;;;;16.30;100.00;101550.63;4947314;29;20687;-73
2023/07/22 08:14:17;;;;;;;8.77;7.30;;;;;;;16.57;100.00;101570.19;4941146;28;20198;-72
2023/07/22 08:16:42;;;;;;;9.50;6.70;;;;;;;16.57;100.00;101571.03;4949041;28;20210;-73
2023/07/22 08:19:07;;;;;;;8.10;6.07;;;;;;;16.40;100.00;101529.28;4947790;28;20819;-72
2023/07/22 08:21:33;;;;;;;8.10;6.17;;;;;;;16.94;100.00;101580.09;4948260;28;20191;-73
2023/07/22 08:23:58;;;;;;;9.93;6.60;;;;;;;16.93;100.00;101572.22;4929692;28;20265;-72
2023/07/22 08:26:24;;;;;;;9.10;6.37;;;;;;;16.54;100.00;101467.75;4944180;28;20681;-72
2023/07/22 08:28:49;;;;;;;16.10;7.90;;;;;;;15.64;100.00;101371.47;4927878;28;20206;-72
2023/07/22 08:31:15;;;;;;;8.93;7.00;;;;;;;16.91;100.00;101548.03;4943851;28;20198;-72
2023/07/22 08:33:40;;;;;;;11.70;7.07;;;;;;;16.91;100.00;101539.91;4945485;28;20677;-73
2023/07/22 08:36:06;;;;;;;9.77;7.70;;;;;;;16.47;100.00;101443.44;4947125;28;20195;-74
2023/07/22 08:38:31;;;;;;;9.23;6.60;;;;;;;16.85;100.00;101491.22;4946853;28;20194;-73
2023/07/22 08:40:57;;;;;;;11.30;7.60;;;;;;;16.76;100.00;101519.63;4946121;28;20578;-72
2023/07/22 08:43:23;;;;;;;10.63;6.83;;;;;;;16.75;100.00;101482.72;4944836;28;20568;-73
2023/07/22 08:45:52;;;;;;;8.73;6.90;;;;;;;17.02;100.00;101545.66;4941326;28;20210;-72
2023/07/22 08:48:21;;;;;;;11.63;7.50;;;;;;;16.77;100.00;101562.75;4946014;28;21008;-73
2023/07/22 08:50:52;;;;;;;11.00;7.13;;;;;;;17.28;100.00;101566.22;4945794;28;20434;-72
2023/07/22 08:53:21;;;;;;;13.17;7.37;;;;;;;17.22;100.00;101557.13;4927257;29;21172;-73
2023/07/22 08:55:49;;;;;;;9.50;7.17;;;;;;;17.01;100.00;101550.25;4929169;29;20541;-72
2023/07/22 08:58:16;;;;;;;10.27;6.97;;;;;;;16.88;100.00;101559.31;4929335;28;20446;-73
2023/07/22 09:00:42;;;;;;;12.63;8.40;;;;;;;16.67;100.00;101593.03;4927610;28;20975;-72
2023/07/22 09:03:09;;;;;;;10.33;7.30;;;;;;;16.42;100.00;101579.47;4945315;28;20531;-72
2023/07/22 09:05:36;;;;;;;9.00;6.23;;;;;;;16.90;100.00;101676.47;4941859;29;20546;-73
2023/07/22 09:08:03;;;;;;;10.47;7.30;;;;;;;16.65;100.00;101662.84;4947109;28;20450;-73
2023/07/22 09:10:29;;;;;;;10.97;7.90;;;;;;;16.63;100.00;101651.38;4944088;28;20458;-72
2023/07/22 09:12:55;;;;;;;8.30;6.43;;;;;;;16.42;100.00;101606.56;4930316;28;20446;-73
2023/07/22 09:15:21;;;;;;;9.50;6.33;;;;;;;16.61;100.00;101583.09;4944544;28;20576;-72
2023/07/22 09:17:47;;;;;;;9.10;6.17;;;;;;;16.95;100.00;101591.78;4946034;28;20286;-73
2023/07/22 09:20:14;;;;;;;9.40;5.97;;;;;;;17.07;100.00;101578.34;4945835;28;20316;-73
2023/07/22 09:22:46;;;;;;;7.37;5.47;;;;;;;17.16;100.00;101563.44;4944823;28;20474;-73
2023/07/22 09:25:14;;;;;;;5.83;4.90;;;;;;;17.29;100.00;101552.44;4942901;28;20450;-73
2023/07/22 09:27:40;;;;;;;7.80;5.27;;;;;;;17.10;100.00;101553.50;4927898;28;20545;-74
2023/07/22 09:30:20;;;;;;;7.67;6.07;;;;;;;17.03;100.00;101609.63;4945762;28;20483;-73
2023/07/22 09:32:46;;;;;;;8.27;6.50;;;;;;;16.96;100.00;101627.84;4944146;29;20183;-73
2023/07/22 09:35:18;;;;;;;8.50;5.90;;;;;;;17.10;100.00;101668.16;5056977;27;20581;-71
2023/07/22 09:37:44;;;;;;;7.80;5.20;;;;;;;17.07;100.00;101656.94;5047788;28;20854;-71
2023/07/22 09:40:14;;;;;;;9.60;5.80;;;;;;;17.28;100.00;101675.50;5050318;28;20963;-71
2023/07/22 09:42:42;;;;;;;6.03;4.20;;;;;;;17.35;100.00;101664.59;5049114;28;20746;-71
2023/07/22 09:45:08;;;;;;;5.30;4.30;;;;;;;17.15;100.00;101583.44;5047140;28;20533;-70
2023/07/22 09:47:42;;;;;;;5.20;4.40;;;;;;;16.82;100.00;101533.13;5051196;28;20454;-70
2023/07/22 09:50:17;;;;;;;8.20;4.53;;;;;;;16.70;100.00;101446.31;5049922;28;20461;-70
2023/07/22 09:52:48;;;;;;;7.30;4.53;;;;;;;17.20;100.00;101474.34;5050997;28;20451;-71
2023/07/22 09:55:19;;;;;;;7.43;4.90;;;;;;;17.26;100.00;101454.47;5046862;28;20476;-71
2023/07/22 09:57:56;;;;;;;6.57;4.23;;;;;;;17.07;100.00;101430.09;5049487;28;20469;-71
2023/07/22 10:00:25;;;;;;;4.80;4.20;;;;;;;17.35;100.00;101480.19;5047163;28;20918;-71
2023/07/22 10:02:51;;;;;;;4.13;3.40;;;;;;;17.39;100.00;101484.94;5046419;28;20492;-70
2023/07/22 10:05:19;;;;;;;8.00;4.50;;;;;;;17.23;100.00;101472.00;5048902;28;20450;-71
2023/07/22 10:07:51;;;;;;;5.70;4.33;;;;;;;16.56;100.00;101433.16;5042593;28;20971;-70
2023/07/22 10:10:18;;;;;;;4.50;3.60;;;;;;;16.98;100.00;101452.28;5042349;28;20445;-71
2023/07/22 10:12:45;;;;;;;4.03;3.20;;;;;;;17.13;100.00;101498.84;5046958;28;20431;-70
2023/07/22 10:15:12;;;;;;;6.27;3.87;;;;;;;16.93;100.00;101464.66;5048836;28;20429;-71
2023/07/22 10:17:39;;;;;;;3.50;2.93;;;;;;;16.73;100.00;101472.97;5046693;28;20489;-71
2023/07/22 10:20:07;;;;;;;6.27;4.03;;;;;;;16.65;100.00;101470.53;5050062;28;20822;-71
2023/07/22 10:22:37;;;;;;;5.03;3.90;;;;;;;16.86;100.00;101501.81;5053521;28;20441;-70
2023/07/22 10:25:07;;;;;;;5.10;3.80;;;;;;;16.93;100.00;101502.59;5036066;28;21265;-71
2023/07/22 10:27:34;;;;;;;3.73;3.33;;;;;;;16.77;100.00;101451.69;5044445;28;20460;-70
2023/07/22 10:30:00;;;;;;;5.20;3.63;;;;;;;16.70;100.00;101418.41;5045971;28;20942;-71
2023/07/22 10:32:35;;;;;;;4.73;3.10;;;;;;;16.87;100.00;101434.94;5046036;28;20528;-70
2023/07/22 10:35:01;;;;;;;4.03;3.43;;;;;;;17.03;100.00;101447.84;5039512;28;20449;-70
2023/07/22 10:37:31;;;;;;;4.10;3.00;;;;;;;17.00;100.00;101445.59;5040136;28;20828;-69
2023/07/22 10:40:21;;;;;;;4.37;3.40;;;;;;;16.73;100.00;101426.91;5040521;28;20222;-70
2023/07/22 10:42:59;;;;;;;4.70;4.10;;;;;;;16.94;100.00;101515.06;5038488;28;20446;-69
2023/07/22 10:45:41;;;;;;;5.57;4.37;;;;;;;16.79;100.00;101608.59;5046207;28;20469;-69
2023/07/22 10:48:14;;;;;;;5.53;4.17;;;;;;;16.59;100.00;101663.72;5032814;28;20445;-70
2023/07/22 10:50:46;;;;;;;6.00;4.67;;;;;;;16.68;100.00;101689.50;5015567;28;20971;-69
2023/07/22 10:53:32;;;;;;;5.67;4.10;;;;;;;16.22;100.00;101646.44;5032485;28;20453;-71
2023/07/22 10:56:13;;;;;;;4.37;3.93;;;;;;;16.84;100.00;101745.09;5027792;28;20515;-69
2023/07/22 10:58:44;;;;;;;5.87;3.67;;;;;;;16.86;100.00;101736.72;5030778;28;21175;-69
2023/07/22 11:01:28;;;;;;;4.07;3.13;;;;;;;16.96;100.00;101717.28;5032524;28;20464;-69
2023/07/22 11:04:32;;;;;;;3.50;2.90;;;;;;;17.03;100.00;101737.84;5030451;28;20561;-69
2023/07/22 11:07:07;;;;;;;3.80;3.27;;;;;;;17.10;100.00;101805.59;5030551;28;20980;-68
2023/07/22 11:09:34;;;;;;;5.70;3.93;;;;;;;16.99;100.00;101827.97;5025141;28;20446;-69
2023/07/22 11:12:08;;;;;;;6.30;4.40;;;;;;;16.72;100.00;101817.19;5027780;28;20438;-69
2023/07/22 11:14:46;;;;;;;5.07;3.60;;;;;;;16.82;100.00;101854.72;5024061;28;21238;-69
2023/07/22 11:17:11;;;;;;;5.73;4.33;;;;;;;16.88;100.00;101872.81;5026259;28;20461;-70